MIA weather

Miami International Airport
Miami, Florida, United States

Public forecast

Using degrees Fahrenheit for public forecast. Weather courtesy of forecast.io.

METAR (pilot weather report)

Retrieved 2018/08/18 06:53 UTC (22 minutes ago):

KMIA 180653Z 00000KT 10SM TS BKN023CB BKN040 BKN100 BKN250 26/25 A3013 RMK AO2 RAB35E53 TSB48 SLP204 OCNL LTGICCG NE AND SW TS NE AND SW-NW MOV NW P0029 T02560250

TAF (pilot weather forecast)

Retrieved 2018/08/18 06:30 UTC (45 minutes ago):

TAF KMIA 180527Z 1806/1912 09009KT P6SM VCSH SCT025 SCT050 TEMPO 1806/1809 VRB15KT 5SM TSRA BKN025CB FM181300 09010KT P6SM VCSH SCT025 SCT040 PROB30 1815/1818 VRB15KT 4SM TSRA BKN025CB FM181800 11011KT P6SM FEW030 PROB30 1818/1821 VRB15KT 4SM TSRA BKN025CB FM190000 10006KT P6SM VCSH SCT025 SCT250